sensor_id;sensor_type;location;lat;lon;timestamp;pressure;altitude;pressure_sealevel;temperature;humidity
12213;BME280;6169;44.158;22.788;2023-04-26T00:01:01;100024.09;;;13.81;50.04
12213;BME280;6169;44.158;22.788;2023-04-26T00:06:06;100015.31;;;13.18;50.27
12213;BME280;6169;44.158;22.788;2023-04-26T00:11:09;100025.44;;;13.28;50.65
12213;BME280;6169;44.158;22.788;2023-04-26T00:16:12;100022.13;;;13.15;51.17
12213;BME280;6169;44.158;22.788;2023-04-26T00:21:16;100002.75;;;13.63;49.38
12213;BME280;6169;44.158;22.788;2023-04-26T00:26:18;99996.78;;;13.56;49.36
12213;BME280;6169;44.158;22.788;2023-04-26T00:31:20;99992.69;;;13.33;49.40
12213;BME280;6169;44.158;22.788;2023-04-26T00:36:24;99986.69;;;13.36;49.22
12213;BME280;6169;44.158;22.788;2023-04-26T00:41:26;99983.38;;;13.03;50.20
12213;BME280;6169;44.158;22.788;2023-04-26T00:46:28;99969.41;;;12.89;51.69
12213;BME280;6169;44.158;22.788;2023-04-26T00:51:32;99953.91;;;13.31;49.80
12213;BME280;6169;44.158;22.788;2023-04-26T00:56:35;99965.66;;;13.11;49.96
12213;BME280;6169;44.158;22.788;2023-04-26T01:01:37;99970.28;;;13.41;48.26
12213;BME280;6169;44.158;22.788;2023-04-26T01:06:43;99984.66;;;14.18;46.58
12213;BME280;6169;44.158;22.788;2023-04-26T01:11:46;99986.63;;;13.15;48.94
12213;BME280;6169;44.158;22.788;2023-04-26T01:16:49;99973.00;;;13.26;49.86
12213;BME280;6169;44.158;22.788;2023-04-26T01:21:53;99985.84;;;13.56;47.71
12213;BME280;6169;44.158;22.788;2023-04-26T01:26:56;99989.56;;;12.10;52.60
12213;BME280;6169;44.158;22.788;2023-04-26T01:31:59;99980.31;;;12.16;52.84
12213;BME280;6169;44.158;22.788;2023-04-26T01:37:01;99980.38;;;12.27;52.31
12213;BME280;6169;44.158;22.788;2023-04-26T01:42:04;99940.97;;;11.92;53.35
12213;BME280;6169;44.158;22.788;2023-04-26T01:47:07;99985.28;;;12.24;53.60
12213;BME280;6169;44.158;22.788;2023-04-26T01:52:09;99987.28;;;11.97;54.58
12213;BME280;6169;44.158;22.788;2023-04-26T01:57:12;99992.03;;;12.17;54.28
12213;BME280;6169;44.158;22.788;2023-04-26T02:02:16;99989.53;;;12.73;52.13
12213;BME280;6169;44.158;22.788;2023-04-26T02:07:18;99981.56;;;12.46;52.61
12213;BME280;6169;44.158;22.788;2023-04-26T02:12:22;99967.34;;;12.39;52.91
12213;BME280;6169;44.158;22.788;2023-04-26T02:17:24;99973.81;;;12.22;53.64
12213;BME280;6169;44.158;22.788;2023-04-26T02:22:27;99989.53;;;12.73;52.10
12213;BME280;6169;44.158;22.788;2023-04-26T02:27:30;99990.19;;;12.28;52.24
12213;BME280;6169;44.158;22.788;2023-04-26T02:32:33;99985.00;;;12.31;52.17
12213;BME280;6169;44.158;22.788;2023-04-26T02:37:36;99991.81;;;12.23;53.57
12213;BME280;6169;44.158;22.788;2023-04-26T02:42:39;99980.06;;;12.18;53.18
12213;BME280;6169;44.158;22.788;2023-04-26T02:47:41;99998.84;;;12.09;52.47
12213;BME280;6169;44.158;22.788;2023-04-26T02:52:44;99971.94;;;12.28;51.96
12213;BME280;6169;44.158;22.788;2023-04-26T02:57:47;99984.34;;;12.66;50.50
12213;BME280;6169;44.158;22.788;2023-04-26T03:02:49;99994.47;;;12.13;52.45
12213;BME280;6169;44.158;22.788;2023-04-26T03:07:51;100001.66;;;12.30;51.81
12213;BME280;6169;44.158;22.788;2023-04-26T03:12:55;99994.72;;;12.75;50.94
12213;BME280;6169;44.158;22.788;2023-04-26T03:17:57;99998.22;;;12.55;50.27
12213;BME280;6169;44.158;22.788;2023-04-26T03:22:59;99995.63;;;12.28;51.07
12213;BME280;6169;44.158;22.788;2023-04-26T03:28:03;100010.03;;;12.23;51.58
12213;BME280;6169;44.158;22.788;2023-04-26T03:33:06;100010.47;;;12.52;50.64
12213;BME280;6169;44.158;22.788;2023-04-26T03:38:08;99993.84;;;12.48;51.10
12213;BME280;6169;44.158;22.788;2023-04-26T03:43:11;99989.00;;;12.71;50.02
12213;BME280;6169;44.158;22.788;2023-04-26T03:48:13;99979.91;;;12.50;49.98
12213;BME280;6169;44.158;22.788;2023-04-26T03:53:16;99984.44;;;12.97;48.56
12213;BME280;6169;44.158;22.788;2023-04-26T03:58:20;99981.19;;;13.62;47.42
12213;BME280;6169;44.158;22.788;2023-04-26T04:03:22;99979.53;;;13.55;47.02
12213;BME280;6169;44.158;22.788;2023-04-26T04:08:24;99980.31;;;14.02;46.10
12213;BME280;6169;44.158;22.788;2023-04-26T04:13:27;99989.53;;;14.32;45.62
12213;BME280;6169;44.158;22.788;2023-04-26T04:18:29;99987.59;;;14.37;44.71
12213;BME280;6169;44.158;22.788;2023-04-26T04:23:32;99997.41;;;14.43;44.67
12213;BME280;6169;44.158;22.788;2023-04-26T04:28:35;100003.63;;;14.59;44.97
12213;BME280;6169;44.158;22.788;2023-04-26T04:33:37;100001.44;;;14.61;44.27
12213;BME280;6169;44.158;22.788;2023-04-26T04:38:39;100011.09;;;14.43;44.40
12213;BME280;6169;44.158;22.788;2023-04-26T04:43:43;100028.47;;;14.73;44.08
12213;BME280;6169;44.158;22.788;2023-04-26T04:48:46;100036.25;;;14.40;44.96
12213;BME280;6169;44.158;22.788;2023-04-26T04:53:48;100033.44;;;14.61;44.76
12213;BME280;6169;44.158;22.788;2023-04-26T04:58:52;100038.44;;;14.43;44.20
12213;BME280;6169;44.158;22.788;2023-04-26T05:03:54;100029.13;;;15.04;42.55
12213;BME280;6169;44.158;22.788;2023-04-26T05:08:57;100043.66;;;15.05;42.51
12213;BME280;6169;44.158;22.788;2023-04-26T05:14:00;100038.09;;;15.15;42.27
12213;BME280;6169;44.158;22.788;2023-04-26T05:19:03;100033.38;;;14.76;42.99
12213;BME280;6169;44.158;22.788;2023-04-26T05:24:05;100047.47;;;14.29;42.08
12213;BME280;6169;44.158;22.788;2023-04-26T05:29:09;100056.13;;;14.61;43.02
12213;BME280;6169;44.158;22.788;2023-04-26T05:34:11;100053.75;;;15.54;40.35
12213;BME280;6169;44.158;22.788;2023-04-26T05:39:13;100054.22;;;14.67;41.05
12213;BME280;6169;44.158;22.788;2023-04-26T05:44:17;100047.13;;;14.61;40.42
12213;BME280;6169;44.158;22.788;2023-04-26T05:49:19;100052.31;;;14.67;39.48
12213;BME280;6169;44.158;22.788;2023-04-26T05:54:21;100057.16;;;14.91;39.17
12213;BME280;6169;44.158;22.788;2023-04-26T05:59:24;100054.47;;;15.99;37.92
12213;BME280;6169;44.158;22.788;2023-04-26T06:04:27;100059.34;;;15.33;37.92
12213;BME280;6169;44.158;22.788;2023-04-26T06:09:30;100060.50;;;15.67;37.35
12213;BME280;6169;44.158;22.788;2023-04-26T06:14:34;100074.03;;;16.16;36.53
12213;BME280;6169;44.158;22.788;2023-04-26T06:19:36;100068.00;;;15.56;34.38
12213;BME280;6169;44.158;22.788;2023-04-26T06:24:38;100100.84;;;15.51;35.17
12213;BME280;6169;44.158;22.788;2023-04-26T06:29:42;100094.00;;;15.93;34.69
12213;BME280;6169;44.158;22.788;2023-04-26T06:34:44;100087.91;;;16.25;34.06
12213;BME280;6169;44.158;22.788;2023-04-26T06:39:47;100095.69;;;16.18;33.53
12213;BME280;6169;44.158;22.788;2023-04-26T06:44:50;100085.06;;;16.40;33.44
12213;BME280;6169;44.158;22.788;2023-04-26T06:49:52;100087.72;;;16.45;32.36
12213;BME280;6169;44.158;22.788;2023-04-26T06:54:54;100089.38;;;16.46;32.21
12213;BME280;6169;44.158;22.788;2023-04-26T06:59:58;100106.75;;;16.85;33.02
12213;BME280;6169;44.158;22.788;2023-04-26T07:05:00;100124.09;;;16.27;32.26
12213;BME280;6169;44.158;22.788;2023-04-26T07:10:03;100113.38;;;17.27;32.31
12213;BME280;6169;44.158;22.788;2023-04-26T07:15:08;100107.31;;;17.06;31.77
12213;BME280;6169;44.158;22.788;2023-04-26T07:20:11;100124.50;;;17.16;31.89
12213;BME280;6169;44.158;22.788;2023-04-26T07:25:15;100115.91;;;17.61;31.43
12213;BME280;6169;44.158;22.788;2023-04-26T07:30:18;100126.84;;;17.47;31.33
12213;BME280;6169;44.158;22.788;2023-04-26T07:35:21;100126.06;;;17.79;29.18
12213;BME280;6169;44.158;22.788;2023-04-26T07:40:23;100131.56;;;17.79;29.45
12213;BME280;6169;44.158;22.788;2023-04-26T07:45:27;100125.88;;;17.19;29.25
12213;BME280;6169;44.158;22.788;2023-04-26T07:50:29;100133.50;;;17.22;29.72
12213;BME280;6169;44.158;22.788;2023-04-26T07:55:31;100137.31;;;17.45;29.64
12213;BME280;6169;44.158;22.788;2023-04-26T08:00:35;100137.19;;;17.88;29.68
12213;BME280;6169;44.158;22.788;2023-04-26T08:05:38;100136.13;;;18.36;29.32
12213;BME280;6169;44.158;22.788;2023-04-26T08:10:40;100134.13;;;18.55;28.87
12213;BME280;6169;44.158;22.788;2023-04-26T08:15:44;100140.91;;;17.97;29.59
12213;BME280;6169;44.158;22.788;2023-04-26T08:20:46;100141.66;;;18.03;27.89
12213;BME280;6169;44.158;22.788;2023-04-26T08:25:48;100124.66;;;17.82;29.37
12213;BME280;6169;44.158;22.788;2023-04-26T08:30:52;99963.66;;;16.91;29.20
12213;BME280;6169;44.158;22.788;2023-04-26T08:35:54;100142.09;;;18.10;28.70
12213;BME280;6169;44.158;22.788;2023-04-26T08:40:58;100139.94;;;17.88;27.30
12213;BME280;6169;44.158;22.788;2023-04-26T08:46:06;100153.50;;;18.50;27.72
12213;BME280;6169;44.158;22.788;2023-04-26T08:51:12;100152.94;;;18.94;28.51
12213;BME280;6169;44.158;22.788;2023-04-26T08:56:15;100165.88;;;18.80;27.09
12213;BME280;6169;44.158;22.788;2023-04-26T09:01:20;100160.03;;;18.68;27.55
12213;BME280;6169;44.158;22.788;2023-04-26T09:06:23;100153.63;;;19.14;27.30
12213;BME280;6169;44.158;22.788;2023-04-26T09:11:28;100148.28;;;19.59;26.75
12213;BME280;6169;44.158;22.788;2023-04-26T09:16:37;100161.91;;;19.14;26.03
12213;BME280;6169;44.158;22.788;2023-04-26T09:21:42;100159.03;;;19.33;26.20
12213;BME280;6169;44.158;22.788;2023-04-26T09:26:45;100158.88;;;19.88;26.35
12213;BME280;6169;44.158;22.788;2023-04-26T09:31:49;100164.59;;;20.14;24.87
12213;BME280;6169;44.158;22.788;2023-04-26T09:36:52;100166.88;;;19.39;24.50
12213;BME280;6169;44.158;22.788;2023-04-26T09:41:56;100163.47;;;21.09;23.67
12213;BME280;6169;44.158;22.788;2023-04-26T09:47:01;100178.38;;;19.92;25.84
12213;BME280;6169;44.158;22.788;2023-04-26T09:52:05;100161.47;;;19.48;25.85
12213;BME280;6169;44.158;22.788;2023-04-26T09:57:07;100163.69;;;19.60;25.30
12213;BME280;6169;44.158;22.788;2023-04-26T10:02:14;100170.03;;;19.47;24.94
12213;BME280;6169;44.158;22.788;2023-04-26T10:07:18;100166.47;;;20.05;24.17
12213;BME280;6169;44.158;22.788;2023-04-26T10:12:20;100169.72;;;20.52;24.06
12213;BME280;6169;44.158;22.788;2023-04-26T10:17:23;100160.91;;;19.60;24.32
12213;BME280;6169;44.158;22.788;2023-04-26T10:22:28;100159.59;;;20.47;24.81
12213;BME280;6169;44.158;22.788;2023-04-26T10:27:48;100172.63;;;20.02;24.22
12213;BME280;6169;44.158;22.788;2023-04-26T10:33:16;100157.31;;;19.96;24.82
12213;BME280;6169;44.158;22.788;2023-04-26T10:38:18;100149.53;;;21.23;24.56
12213;BME280;6169;44.158;22.788;2023-04-26T10:43:27;100164.28;;;20.69;23.96
12213;BME280;6169;44.158;22.788;2023-04-26T10:48:31;100146.41;;;20.76;24.03
12213;BME280;6169;44.158;22.788;2023-04-26T10:53:57;100117.25;;;19.76;23.74
12213;BME280;6169;44.158;22.788;2023-04-26T10:59:09;100165.81;;;19.63;24.24
12213;BME280;6169;44.158;22.788;2023-04-26T11:04:13;100164.84;;;20.04;23.17
12213;BME280;6169;44.158;22.788;2023-04-26T11:09:35;100172.81;;;19.69;24.34
12213;BME280;6169;44.158;22.788;2023-04-26T11:14:40;100168.44;;;19.68;24.36
12213;BME280;6169;44.158;22.788;2023-04-26T11:19:45;100171.69;;;19.48;24.08
12213;BME280;6169;44.158;22.788;2023-04-26T11:24:48;100164.06;;;19.67;24.44
12213;BME280;6169;44.158;22.788;2023-04-26T11:29:53;100178.38;;;19.92;24.13
12213;BME280;6169;44.158;22.788;2023-04-26T11:34:59;100176.41;;;20.60;23.65
12213;BME280;6169;44.158;22.788;2023-04-26T11:40:01;100174.81;;;20.36;23.93
12213;BME280;6169;44.158;22.788;2023-04-26T11:45:04;100119.09;;;20.65;23.25
12213;BME280;6169;44.158;22.788;2023-04-26T11:50:10;100180.00;;;20.91;22.65
12213;BME280;6169;44.158;22.788;2023-04-26T11:55:12;100183.91;;;20.90;22.72
12213;BME280;6169;44.158;22.788;2023-04-26T12:00:15;100195.41;;;21.41;22.33
12213;BME280;6169;44.158;22.788;2023-04-26T12:05:23;100176.66;;;21.21;21.52
12213;BME280;6169;44.158;22.788;2023-04-26T12:10:29;100182.31;;;21.15;21.61
12213;BME280;6169;44.158;22.788;2023-04-26T12:15:32;100174.16;;;21.94;22.87
12213;BME280;6169;44.158;22.788;2023-04-26T12:20:37;100190.44;;;21.03;22.95
12213;BME280;6169;44.158;22.788;2023-04-26T12:25:40;100185.75;;;21.12;21.73
12213;BME280;6169;44.158;22.788;2023-04-26T12:30:42;100177.56;;;20.67;22.79
12213;BME280;6169;44.158;22.788;2023-04-26T12:35:47;100173.91;;;20.81;22.85
12213;BME280;6169;44.158;22.788;2023-04-26T12:40:49;100190.28;;;20.15;22.74
12213;BME280;6169;44.158;22.788;2023-04-26T12:45:51;100182.44;;;19.94;23.28
12213;BME280;6169;44.158;22.788;2023-04-26T12:50:55;100178.09;;;20.38;22.73
12213;BME280;6169;44.158;22.788;2023-04-26T12:55:57;100199.91;;;21.20;22.89
12213;BME280;6169;44.158;22.788;2023-04-26T13:00:59;100179.81;;;20.88;22.29
12213;BME280;6169;44.158;22.788;2023-04-26T13:06:03;100197.44;;;22.27;23.26
12213;BME280;6169;44.158;22.788;2023-04-26T13:11:06;100209.31;;;22.28;21.64
12213;BME280;6169;44.158;22.788;2023-04-26T13:16:08;100198.50;;;20.60;23.01
12213;BME280;6169;44.158;22.788;2023-04-26T13:21:12;100211.25;;;19.38;23.31
12213;BME280;6169;44.158;22.788;2023-04-26T13:26:14;100213.59;;;19.72;23.16
12213;BME280;6169;44.158;22.788;2023-04-26T13:31:18;100217.94;;;20.23;22.65
12213;BME280;6169;44.158;22.788;2023-04-26T13:36:21;100229.22;;;19.63;22.73
12213;BME280;6169;44.158;22.788;2023-04-26T13:41:24;100221.34;;;20.07;22.86
12213;BME280;6169;44.158;22.788;2023-04-26T13:46:26;100224.97;;;19.93;25.69
12213;BME280;6169;44.158;22.788;2023-04-26T13:51:30;100214.16;;;21.04;26.76
12213;BME280;6169;44.158;22.788;2023-04-26T13:56:33;100237.38;;;20.18;26.58
12213;BME280;6169;44.158;22.788;2023-04-26T14:01:35;100237.06;;;19.83;25.94
12213;BME280;6169;44.158;22.788;2023-04-26T14:06:40;100232.09;;;19.94;27.06
12213;BME280;6169;44.158;22.788;2023-04-26T14:11:42;100241.56;;;19.38;28.79
12213;BME280;6169;44.158;22.788;2023-04-26T14:16:44;100251.16;;;19.68;27.90
12213;BME280;6169;44.158;22.788;2023-04-26T14:21:48;100244.03;;;19.39;28.05
12213;BME280;6169;44.158;22.788;2023-04-26T14:26:50;100259.97;;;19.56;27.78
12213;BME280;6169;44.158;22.788;2023-04-26T14:31:52;100263.13;;;20.00;28.11
12213;BME280;6169;44.158;22.788;2023-04-26T14:36:55;100265.56;;;19.37;28.45
12213;BME280;6169;44.158;22.788;2023-04-26T14:42:01;100280.81;;;18.56;29.04
12213;BME280;6169;44.158;22.788;2023-04-26T14:47:03;100282.19;;;19.88;28.02
12213;BME280;6169;44.158;22.788;2023-04-26T14:52:07;100287.91;;;19.77;27.60
12213;BME280;6169;44.158;22.788;2023-04-26T14:57:09;100290.81;;;19.58;27.33
12213;BME280;6169;44.158;22.788;2023-04-26T15:02:11;100309.47;;;19.20;28.37
12213;BME280;6169;44.158;22.788;2023-04-26T15:07:15;100322.44;;;18.87;28.38
12213;BME280;6169;44.158;22.788;2023-04-26T15:12:17;100315.47;;;19.08;28.31
12213;BME280;6169;44.158;22.788;2023-04-26T15:17:20;100328.34;;;18.61;29.22
12213;BME280;6169;44.158;22.788;2023-04-26T15:22:23;100332.50;;;18.97;27.83
12213;BME280;6169;44.158;22.788;2023-04-26T15:27:26;100333.88;;;18.61;27.97
12213;BME280;6169;44.158;22.788;2023-04-26T15:32:28;100341.34;;;18.93;26.77
12213;BME280;6169;44.158;22.788;2023-04-26T15:37:31;100338.25;;;18.81;26.15
12213;BME280;6169;44.158;22.788;2023-04-26T15:42:33;100343.25;;;18.60;27.89
12213;BME280;6169;44.158;22.788;2023-04-26T15:47:36;100366.09;;;18.23;29.04
12213;BME280;6169;44.158;22.788;2023-04-26T15:52:39;100354.09;;;18.70;28.49
12213;BME280;6169;44.158;22.788;2023-04-26T15:57:42;100355.41;;;17.97;28.02
12213;BME280;6169;44.158;22.788;2023-04-26T16:02:44;100375.31;;;17.89;28.98
12213;BME280;6169;44.158;22.788;2023-04-26T16:07:48;100396.56;;;18.08;29.61
12213;BME280;6169;44.158;22.788;2023-04-26T16:12:50;100383.47;;;17.46;29.97
12213;BME280;6169;44.158;22.788;2023-04-26T16:17:52;100403.78;;;17.50;30.33
12213;BME280;6169;44.158;22.788;2023-04-26T16:22:56;100390.56;;;17.52;30.67
12213;BME280;6169;44.158;22.788;2023-04-26T16:27:58;100393.69;;;17.70;30.07
12213;BME280;6169;44.158;22.788;2023-04-26T16:33:00;100409.63;;;17.44;30.58
12213;BME280;6169;44.158;22.788;2023-04-26T16:38:05;100414.50;;;17.76;30.22
12213;BME280;6169;44.158;22.788;2023-04-26T16:43:08;100423.56;;;17.23;31.01
12213;BME280;6169;44.158;22.788;2023-04-26T16:48:14;100433.81;;;17.71;30.14
12213;BME280;6169;44.158;22.788;2023-04-26T16:53:18;100444.19;;;17.15;30.10
12213;BME280;6169;44.158;22.788;2023-04-26T16:58:22;100464.41;;;17.30;29.31
12213;BME280;6169;44.158;22.788;2023-04-26T17:03:25;100468.59;;;16.83;29.87
12213;BME280;6169;44.158;22.788;2023-04-26T17:08:29;100459.66;;;17.01;29.55
12213;BME280;6169;44.158;22.788;2023-04-26T17:13:31;100479.28;;;16.84;29.81
12213;BME280;6169;44.158;22.788;2023-04-26T17:18:33;100494.13;;;17.28;29.09
12213;BME280;6169;44.158;22.788;2023-04-26T17:23:37;100506.13;;;17.37;28.95
12213;BME280;6169;44.158;22.788;2023-04-26T17:28:39;100515.34;;;17.12;29.22
12213;BME280;6169;44.158;22.788;2023-04-26T17:33:41;100526.63;;;17.10;29.72
12213;BME280;6169;44.158;22.788;2023-04-26T17:38:45;100538.44;;;17.11;29.43
12213;BME280;6169;44.158;22.788;2023-04-26T17:43:48;100544.22;;;17.04;30.02
12213;BME280;6169;44.158;22.788;2023-04-26T17:48:50;100551.31;;;17.21;29.84
12213;BME280;6169;44.158;22.788;2023-04-26T17:53:54;100558.78;;;16.45;30.72
12213;BME280;6169;44.158;22.788;2023-04-26T17:58:56;100573.34;;;17.05;29.92
12213;BME280;6169;44.158;22.788;2023-04-26T18:03:58;100584.34;;;17.50;29.64
12213;BME280;6169;44.158;22.788;2023-04-26T18:09:03;100566.97;;;17.20;29.53
12213;BME280;6169;44.158;22.788;2023-04-26T18:14:07;100601.47;;;16.82;30.65
12213;BME280;6169;44.158;22.788;2023-04-26T18:19:09;100620.28;;;17.09;30.52
12213;BME280;6169;44.158;22.788;2023-04-26T18:24:13;100623.81;;;16.34;31.59
12213;BME280;6169;44.158;22.788;2023-04-26T18:29:16;100629.13;;;16.96;31.07
12213;BME280;6169;44.158;22.788;2023-04-26T18:34:19;100636.56;;;16.90;31.42
12213;BME280;6169;44.158;22.788;2023-04-26T18:39:23;100632.88;;;16.40;32.13
12213;BME280;6169;44.158;22.788;2023-04-26T18:44:25;100650.44;;;16.28;32.63
12213;BME280;6169;44.158;22.788;2023-04-26T18:49:29;100654.81;;;15.63;34.16
12213;BME280;6169;44.158;22.788;2023-04-26T18:54:33;100646.06;;;16.17;33.85
12213;BME280;6169;44.158;22.788;2023-04-26T18:59:35;100666.88;;;16.28;33.99
12213;BME280;6169;44.158;22.788;2023-04-26T19:04:38;100662.16;;;16.75;33.50
12213;BME280;6169;44.158;22.788;2023-04-26T19:09:42;100664.44;;;16.22;34.48
12213;BME280;6169;44.158;22.788;2023-04-26T19:14:44;100599.75;;;15.85;34.12
12213;BME280;6169;44.158;22.788;2023-04-26T19:19:47;100672.28;;;16.85;33.77
12213;BME280;6169;44.158;22.788;2023-04-26T19:24:53;100683.09;;;16.04;34.86
12213;BME280;6169;44.158;22.788;2023-04-26T19:29:56;100680.34;;;16.35;34.45
12213;BME280;6169;44.158;22.788;2023-04-26T19:34:59;100699.25;;;16.16;34.92
12213;BME280;6169;44.158;22.788;2023-04-26T19:40:03;100674.03;;;15.94;35.54
12213;BME280;6169;44.158;22.788;2023-04-26T19:45:07;100696.50;;;15.91;36.31
12213;BME280;6169;44.158;22.788;2023-04-26T19:50:10;100709.91;;;15.62;36.73
12213;BME280;6169;44.158;22.788;2023-04-26T19:55:14;100714.38;;;16.44;36.06
12213;BME280;6169;44.158;22.788;2023-04-26T20:00:16;100719.81;;;15.83;36.59
12213;BME280;6169;44.158;22.788;2023-04-26T20:05:18;100717.31;;;15.71;36.92
12213;BME280;6169;44.158;22.788;2023-04-26T20:10:22;100716.66;;;15.44;38.00
12213;BME280;6169;44.158;22.788;2023-04-26T20:15:25;100708.31;;;15.13;38.52
12213;BME280;6169;44.158;22.788;2023-04-26T20:20:27;100714.75;;;14.81;39.36
12213;BME280;6169;44.158;22.788;2023-04-26T20:25:30;100709.88;;;14.51;40.22
12213;BME280;6169;44.158;22.788;2023-04-26T20:30:32;100710.25;;;13.95;41.19
12213;BME280;6169;44.158;22.788;2023-04-26T20:35:35;100720.44;;;14.05;41.42
12213;BME280;6169;44.158;22.788;2023-04-26T20:40:38;100712.13;;;14.22;40.61
12213;BME280;6169;44.158;22.788;2023-04-26T20:45:41;100721.41;;;14.21;41.13
12213;BME280;6169;44.158;22.788;2023-04-26T20:50:43;100715.72;;;13.95;41.64
12213;BME280;6169;44.158;22.788;2023-04-26T20:55:46;100719.22;;;14.18;41.03
12213;BME280;6169;44.158;22.788;2023-04-26T21:00:49;100718.00;;;14.03;41.20
12213;BME280;6169;44.158;22.788;2023-04-26T21:05:51;100727.66;;;13.89;41.62
12213;BME280;6169;44.158;22.788;2023-04-26T21:10:55;100725.03;;;13.99;41.10
12213;BME280;6169;44.158;22.788;2023-04-26T21:15:57;100736.59;;;14.07;40.13
12213;BME280;6169;44.158;22.788;2023-04-26T21:21:00;100736.44;;;13.91;41.21
12213;BME280;6169;44.158;22.788;2023-04-26T21:26:03;100727.38;;;14.50;39.86
12213;BME280;6169;44.158;22.788;2023-04-26T21:31:06;100741.81;;;14.40;40.08
12213;BME280;6169;44.158;22.788;2023-04-26T21:36:08;100749.50;;;14.43;40.18
12213;BME280;6169;44.158;22.788;2023-04-26T21:41:12;100754.88;;;14.33;40.36
12213;BME280;6169;44.158;22.788;2023-04-26T21:46:47;100762.84;;;14.08;39.82
12213;BME280;6169;44.158;22.788;2023-04-26T21:51:49;100763.78;;;14.18;40.17
12213;BME280;6169;44.158;22.788;2023-04-26T21:56:52;100766.56;;;14.29;39.60
12213;BME280;6169;44.158;22.788;2023-04-26T22:01:55;100771.41;;;14.48;39.14
12213;BME280;6169;44.158;22.788;2023-04-26T22:06:57;100769.41;;;14.07;40.09
12213;BME280;6169;44.158;22.788;2023-04-26T22:12:00;100778.25;;;14.19;39.60
12213;BME280;6169;44.158;22.788;2023-04-26T22:17:03;100779.25;;;14.08;39.89
12213;BME280;6169;44.158;22.788;2023-04-26T22:22:05;100787.16;;;14.04;40.50
12213;BME280;6169;44.158;22.788;2023-04-26T22:27:09;100792.72;;;14.46;39.84
12213;BME280;6169;44.158;22.788;2023-04-26T22:32:11;100787.53;;;14.77;39.05
12213;BME280;6169;44.158;22.788;2023-04-26T22:37:13;100792.72;;;14.79;38.63
12213;BME280;6169;44.158;22.788;2023-04-26T22:42:16;100798.59;;;14.98;39.00
12213;BME280;6169;44.158;22.788;2023-04-26T22:47:19;100800.13;;;14.78;39.17
12213;BME280;6169;44.158;22.788;2023-04-26T22:52:22;100808.97;;;14.58;40.24
12213;BME280;6169;44.158;22.788;2023-04-26T22:57:26;100802.00;;;14.45;40.35
12213;BME280;6169;44.158;22.788;2023-04-26T23:02:28;100804.09;;;14.06;41.26
12213;BME280;6169;44.158;22.788;2023-04-26T23:07:59;100814.81;;;13.86;40.93
12213;BME280;6169;44.158;22.788;2023-04-26T23:13:18;100811.44;;;13.56;41.82
12213;BME280;6169;44.158;22.788;2023-04-26T23:18:51;100814.19;;;13.56;41.85
12213;BME280;6169;44.158;22.788;2023-04-26T23:23:54;100813.78;;;13.48;41.49
12213;BME280;6169;44.158;22.788;2023-04-26T23:28:57;100819.47;;;13.02;42.75
12213;BME280;6169;44.158;22.788;2023-04-26T23:33:59;100816.41;;;12.82;42.93
12213;BME280;6169;44.158;22.788;2023-04-26T23:39:02;100824.84;;;12.80;42.64
12213;BME280;6169;44.158;22.788;2023-04-26T23:44:06;100824.06;;;12.06;44.15
12213;BME280;6169;44.158;22.788;2023-04-26T23:49:08;100827.66;;;12.40;43.21
12213;BME280;6169;44.158;22.788;2023-04-26T23:54:11;100822.00;;;12.75;42.33
12213;BME280;6169;44.158;22.788;2023-04-26T23:59:15;100825.47;;;12.70;42.09
